createdAt,value
2022-12-16T00:02:20.947Z,-4.14
2022-12-16T00:07:42.963Z,-4.29
2022-12-16T00:13:09.071Z,-4.31
2022-12-16T00:18:32.703Z,-4.25
2022-12-16T00:23:55.618Z,-4.13
2022-12-16T00:29:17.579Z,-4.22
2022-12-16T00:34:39.384Z,-4.16
2022-12-16T00:40:01.363Z,-4.34
2022-12-16T00:45:23.285Z,-4.33
2022-12-16T00:50:54.928Z,-4.36
2022-12-16T00:56:17.409Z,-4.35
2022-12-16T01:01:39.299Z,-4.64
2022-12-16T01:07:01.261Z,-4.53
2022-12-16T01:12:23.237Z,-4.56
2022-12-16T01:17:46.590Z,-4.43
2022-12-16T01:23:08.800Z,-4.43
2022-12-16T01:28:30.796Z,-4.37
2022-12-16T01:33:52.688Z,-4.34
2022-12-16T01:39:14.612Z,-4.28
2022-12-16T01:44:36.498Z,-4.20
2022-12-16T01:50:15.113Z,-4.34
2022-12-16T01:55:50.260Z,-4.52
2022-12-16T02:01:13.410Z,-4.59
2022-12-16T02:06:35.379Z,-4.54
2022-12-16T02:12:32.420Z,-4.65
2022-12-16T02:18:20.530Z,-4.52
2022-12-16T02:24:14.620Z,-4.50
2022-12-16T02:29:59.726Z,-4.51
2022-12-16T02:35:32.604Z,-4.45
2022-12-16T02:41:01.957Z,-4.67
2022-12-16T02:46:27.542Z,-4.68
2022-12-16T02:51:50.036Z,-4.72
2022-12-16T02:57:17.802Z,-4.82
2022-12-16T03:02:48.485Z,-4.71
2022-12-16T03:08:18.112Z,-4.76
2022-12-16T03:13:45.118Z,-4.62
2022-12-16T03:19:09.251Z,-4.72
2022-12-16T03:24:31.402Z,-4.79
2022-12-16T03:30:06.365Z,-4.84
2022-12-16T03:35:45.248Z,-4.81
2022-12-16T03:41:08.177Z,-4.75
2022-12-16T03:46:30.171Z,-4.67
2022-12-16T03:51:54.576Z,-4.71
2022-12-16T03:57:16.519Z,-4.82
2022-12-16T04:02:38.886Z,-5.00
2022-12-16T04:08:02.257Z,-5.09
2022-12-16T04:13:24.313Z,-4.83
2022-12-16T04:18:47.531Z,-4.76
2022-12-16T04:24:16.702Z,-4.86
2022-12-16T04:29:38.722Z,-4.82
2022-12-16T04:35:00.572Z,-5.07
2022-12-16T04:40:22.376Z,-4.92
2022-12-16T04:45:46.954Z,-4.72
2022-12-16T04:51:08.796Z,-4.68
2022-12-16T04:56:30.643Z,-5.05
2022-12-16T05:01:52.588Z,-4.91
2022-12-16T05:07:14.643Z,-4.90
2022-12-16T05:12:36.538Z,-4.96
2022-12-16T05:17:58.328Z,-4.91
2022-12-16T05:23:20.128Z,-5.11
2022-12-16T05:28:42.049Z,-5.00
2022-12-16T05:34:03.922Z,-4.99
2022-12-16T05:39:25.755Z,-5.07
2022-12-16T05:44:47.612Z,-4.91
2022-12-16T05:50:09.540Z,-4.94
2022-12-16T05:55:34.117Z,-4.90
2022-12-16T06:00:56.248Z,-5.01
2022-12-16T06:06:18.075Z,-4.89
2022-12-16T06:11:39.920Z,-4.99
2022-12-16T06:17:01.788Z,-5.01
2022-12-16T06:22:23.639Z,-4.88
2022-12-16T06:27:51.215Z,-4.68
2022-12-16T06:33:13.102Z,-4.99
2022-12-16T06:38:34.977Z,-4.77
2022-12-16T06:43:56.854Z,-4.76
2022-12-16T06:49:18.779Z,-4.87
2022-12-16T06:54:40.605Z,-4.80
2022-12-16T07:00:02.726Z,-4.63
2022-12-16T07:05:24.559Z,-4.65
2022-12-16T07:10:46.396Z,-4.68
2022-12-16T07:16:08.407Z,-4.64
2022-12-16T07:21:30.245Z,-4.71
2022-12-16T07:26:52.269Z,-4.54
2022-12-16T07:32:14.126Z,-4.55
2022-12-16T07:37:38.683Z,-4.50
2022-12-16T07:43:00.552Z,-4.71
2022-12-16T07:48:22.450Z,-4.39
2022-12-16T07:53:44.311Z,-4.50
2022-12-16T07:59:06.137Z,-4.47
2022-12-16T08:04:27.991Z,-4.31
2022-12-16T08:09:49.829Z,-4.34
2022-12-16T08:15:11.702Z,-4.58
2022-12-16T08:20:33.781Z,-4.56
2022-12-16T08:25:55.805Z,-4.46
2022-12-16T08:31:17.800Z,-4.36
2022-12-16T08:36:39.751Z,-4.30
2022-12-16T08:42:01.620Z,-4.30
2022-12-16T08:47:23.616Z,-4.42
2022-12-16T08:52:45.556Z,-4.21
2022-12-16T08:58:07.433Z,-4.19
2022-12-16T09:03:29.426Z,-4.20
2022-12-16T09:08:51.335Z,-4.10
2022-12-16T09:14:13.206Z,-4.04
2022-12-16T09:19:35.045Z,-3.93
2022-12-16T09:24:56.903Z,-3.96
2022-12-16T09:30:18.834Z,-3.73
2022-12-16T09:35:40.723Z,-3.56
2022-12-16T09:41:31.467Z,-3.86
2022-12-16T09:47:08.541Z,-3.91
2022-12-16T09:52:36.905Z,-3.52
2022-12-16T09:57:58.892Z,-3.26
2022-12-16T10:03:34.753Z,-3.41
2022-12-16T10:09:02.371Z,-3.07
2022-12-16T10:14:36.508Z,-2.81
2022-12-16T10:20:16.548Z,-3.04
2022-12-16T10:25:52.797Z,-2.87
2022-12-16T10:31:17.950Z,-2.91
2022-12-16T10:36:41.517Z,-2.98
2022-12-16T10:42:04.464Z,-3.24
2022-12-16T10:47:26.342Z,-2.97
2022-12-16T10:52:56.502Z,-2.80
2022-12-16T10:58:36.141Z,-3.07
2022-12-16T11:03:58.051Z,-2.93
2022-12-16T11:09:25.734Z,-2.93
2022-12-16T11:15:27.023Z,-2.82
2022-12-16T11:20:34.766Z,-2.80
2022-12-16T11:26:17.643Z,-2.78
2022-12-16T11:31:39.580Z,-2.75
2022-12-16T11:37:02.258Z,-2.88
2022-12-16T11:42:27.770Z,-2.65
2022-12-16T11:48:07.759Z,-2.77
2022-12-16T11:53:36.351Z,-2.73
2022-12-16T11:59:04.569Z,-2.46
2022-12-16T12:04:26.547Z,-2.50
2022-12-16T12:10:02.420Z,-2.52
2022-12-16T12:15:37.114Z,-2.44
2022-12-16T12:21:24.702Z,-2.59
2022-12-16T12:27:12.334Z,-2.46
2022-12-16T12:32:47.385Z,-2.29
2022-12-16T12:38:29.606Z,-2.24
2022-12-16T12:44:06.352Z,-2.35
2022-12-16T12:49:52.940Z,-2.28
2022-12-16T12:55:28.687Z,-2.45
2022-12-16T13:00:55.350Z,-2.37
2022-12-16T13:06:18.963Z,-2.46
2022-12-16T13:12:08.427Z,-2.60
2022-12-16T13:17:57.341Z,-2.53
2022-12-16T13:23:40.947Z,-2.63
2022-12-16T13:29:24.262Z,-2.61
2022-12-16T13:34:46.300Z,-2.67
2022-12-16T13:40:25.367Z,-2.71
2022-12-16T13:46:14.388Z,-2.78
2022-12-16T13:51:38.957Z,-2.82
2022-12-16T13:57:03.608Z,-2.84
2022-12-16T14:02:40.574Z,-3.05
2022-12-16T14:08:03.361Z,-2.83
2022-12-16T14:13:49.955Z,-2.74
2022-12-16T14:19:14.437Z,-2.87
2022-12-16T14:24:38.570Z,-2.90
2022-12-16T14:30:01.976Z,-2.93
2022-12-16T14:35:26.385Z,-2.92
2022-12-16T14:40:51.639Z,-3.03
2022-12-16T14:46:31.678Z,-3.11
2022-12-16T14:51:53.539Z,-3.02
2022-12-16T14:57:27.333Z,-3.05
2022-12-16T15:02:51.411Z,-2.91
2022-12-16T15:08:13.704Z,-2.94
2022-12-16T15:13:36.558Z,-2.96
2022-12-16T15:19:01.367Z,-3.12
2022-12-16T15:24:25.661Z,-2.97
2022-12-16T15:29:47.523Z,-3.03
2022-12-16T15:35:27.663Z,-2.92
2022-12-16T15:40:51.309Z,-3.03
2022-12-16T15:46:32.968Z,-3.12
2022-12-16T15:51:54.824Z,-3.10
2022-12-16T15:57:34.542Z,-3.06
2022-12-16T16:02:56.496Z,-3.25
2022-12-16T16:08:18.433Z,-3.13
2022-12-16T16:13:41.611Z,-3.11
2022-12-16T16:19:04.437Z,-3.13
2022-12-16T16:24:26.275Z,-3.18
2022-12-16T16:29:48.077Z,-3.21
2022-12-16T16:35:09.918Z,-3.17
2022-12-16T16:40:35.293Z,-3.19
2022-12-16T16:45:57.567Z,-3.17
2022-12-16T16:51:19.500Z,-3.15
2022-12-16T16:56:41.476Z,-3.14
2022-12-16T17:02:10.122Z,-3.17
2022-12-16T17:07:32.053Z,-3.19
2022-12-16T17:12:54.029Z,-3.00
2022-12-16T17:18:16.076Z,-2.99
2022-12-16T17:23:38.249Z,-2.97
2022-12-16T17:29:00.111Z,-3.06
2022-12-16T17:34:21.970Z,-3.17
2022-12-16T17:39:43.767Z,-3.12
2022-12-16T17:45:06.090Z,-3.10
2022-12-16T17:50:27.920Z,-3.16
2022-12-16T17:55:49.783Z,-3.24
2022-12-16T18:01:11.628Z,-3.19
2022-12-16T18:06:33.633Z,-3.14
2022-12-16T18:11:55.506Z,-3.13
2022-12-16T18:17:17.386Z,-3.10
2022-12-16T18:22:39.272Z,-3.00
2022-12-16T18:28:01.228Z,-3.10
2022-12-16T18:33:23.060Z,-3.09
2022-12-16T18:38:45.013Z,-3.07
2022-12-16T18:44:10.306Z,-3.18
2022-12-16T18:49:32.324Z,-3.24
2022-12-16T18:54:54.329Z,-3.07
2022-12-16T19:00:16.449Z,-2.98
2022-12-16T19:05:38.368Z,-2.92
2022-12-16T19:11:00.324Z,-2.88
2022-12-16T19:16:22.509Z,-2.94
2022-12-16T19:27:26.348Z,-2.93
2022-12-16T19:32:48.817Z,-2.77
2022-12-16T19:38:14.274Z,-2.72
2022-12-16T19:43:36.155Z,-2.72
2022-12-16T19:48:58.046Z,-2.64
2022-12-16T19:54:19.932Z,-2.76
2022-12-16T19:59:41.816Z,-2.81
2022-12-16T20:05:03.932Z,-2.76
2022-12-16T20:10:25.842Z,-2.67
2022-12-16T20:15:47.730Z,-2.81
2022-12-16T20:21:09.741Z,-2.88
2022-12-16T20:26:31.658Z,-2.73
2022-12-16T20:31:55.751Z,-2.75
2022-12-16T20:37:17.866Z,-2.84
2022-12-16T20:42:39.811Z,-2.84
2022-12-16T20:48:02.580Z,-2.93
2022-12-16T20:53:24.467Z,-2.77
2022-12-16T20:58:46.305Z,-2.81
2022-12-16T21:04:08.212Z,-2.94
2022-12-16T21:09:31.493Z,-3.01
2022-12-16T21:14:53.381Z,-3.11
2022-12-16T21:20:15.642Z,-3.07
2022-12-16T21:25:37.431Z,-3.11
2022-12-16T21:30:59.673Z,-2.99
2022-12-16T21:36:21.495Z,-3.23
2022-12-16T21:41:43.461Z,-3.18
2022-12-16T21:47:05.294Z,-3.26
2022-12-16T21:52:27.175Z,-3.20
2022-12-16T21:57:49.054Z,-3.04
2022-12-16T22:03:10.913Z,-3.16
2022-12-16T22:08:32.924Z,-3.08
2022-12-16T22:13:54.874Z,-3.05
2022-12-16T22:19:18.187Z,-3.06
2022-12-16T22:24:40.041Z,-3.20
2022-12-16T22:30:02.010Z,-3.10
2022-12-16T22:35:23.910Z,-3.18
2022-12-16T22:40:57.165Z,-3.24
2022-12-16T22:46:19.127Z,-3.17
2022-12-16T22:51:41.053Z,-3.33
2022-12-16T22:57:02.870Z,-3.11
2022-12-16T23:02:24.698Z,-3.15
2022-12-16T23:07:46.753Z,-3.27
2022-12-16T23:13:11.041Z,-3.22
2022-12-16T23:18:32.885Z,-3.07
2022-12-16T23:23:57.008Z,-3.03
2022-12-16T23:29:19.080Z,-3.06
2022-12-16T23:32:29.617Z,-2.90
2022-12-16T23:34:45.713Z,-3.11
2022-12-16T23:40:08.819Z,-3.02
2022-12-16T23:45:31.994Z,-3.05
2022-12-16T23:50:54.552Z,-3.00
2022-12-16T23:56:18.201Z,-3.09
